sensor_id;sensor_type;location;lat;lon;timestamp;pressure;altitude;pressure_sealevel;temperature;humidity
28310;BME280;15571;50.974;13.936;2023-07-13T00:02:09;99845.81;;;21.64;100.00
28310;BME280;15571;50.974;13.936;2023-07-13T00:05:13;99848.88;;;21.72;100.00
28310;BME280;15571;50.974;13.936;2023-07-13T00:08:15;99852.75;;;21.67;100.00
28310;BME280;15571;50.974;13.936;2023-07-13T00:11:17;99832.31;;;21.98;100.00
28310;BME280;15571;50.974;13.936;2023-07-13T00:14:19;99831.19;;;22.02;100.00
28310;BME280;15571;50.974;13.936;2023-07-13T00:17:21;99832.38;;;21.66;100.00
28310;BME280;15571;50.974;13.936;2023-07-13T00:20:25;99841.34;;;21.49;100.00
28310;BME280;15571;50.974;13.936;2023-07-13T00:23:26;99863.84;;;21.43;100.00
28310;BME280;15571;50.974;13.936;2023-07-13T00:26:28;99883.16;;;21.46;100.00
28310;BME280;15571;50.974;13.936;2023-07-13T00:29:33;99906.97;;;21.50;100.00
28310;BME280;15571;50.974;13.936;2023-07-13T00:32:35;99927.03;;;21.55;100.00
28310;BME280;15571;50.974;13.936;2023-07-13T00:35:38;99957.81;;;21.61;100.00
28310;BME280;15571;50.974;13.936;2023-07-13T00:38:40;99974.97;;;21.55;100.00
28310;BME280;15571;50.974;13.936;2023-07-13T00:41:42;99997.03;;;21.59;100.00
28310;BME280;15571;50.974;13.936;2023-07-13T00:48:03;100012.03;;;21.26;100.00
28310;BME280;15571;50.974;13.936;2023-07-13T00:51:06;100007.53;;;21.11;100.00
28310;BME280;15571;50.974;13.936;2023-07-13T00:54:09;100001.13;;;20.97;100.00
28310;BME280;15571;50.974;13.936;2023-07-13T00:57:14;99987.69;;;20.65;100.00
28310;BME280;15571;50.974;13.936;2023-07-13T01:00:16;99971.50;;;20.88;100.00
28310;BME280;15571;50.974;13.936;2023-07-13T01:03:19;99980.09;;;20.23;100.00
28310;BME280;15571;50.974;13.936;2023-07-13T01:06:23;99987.13;;;19.87;100.00
28310;BME280;15571;50.974;13.936;2023-07-13T01:09:26;99961.53;;;20.21;100.00
28310;BME280;15571;50.974;13.936;2023-07-13T01:12:28;99945.91;;;20.15;100.00
28310;BME280;15571;50.974;13.936;2023-07-13T01:15:35;99932.69;;;19.77;100.00
28310;BME280;15571;50.974;13.936;2023-07-13T01:18:38;99955.81;;;19.74;100.00
28310;BME280;15571;50.974;13.936;2023-07-13T01:21:42;99971.44;;;19.81;100.00
28310;BME280;15571;50.974;13.936;2023-07-13T01:24:44;99971.28;;;19.84;100.00
28310;BME280;15571;50.974;13.936;2023-07-13T01:27:47;99979.63;;;19.76;100.00
28310;BME280;15571;50.974;13.936;2023-07-13T01:30:49;99982.34;;;19.74;100.00
28310;BME280;15571;50.974;13.936;2023-07-13T01:33:51;99986.38;;;19.64;100.00
28310;BME280;15571;50.974;13.936;2023-07-13T01:36:56;99971.44;;;19.42;100.00
28310;BME280;15571;50.974;13.936;2023-07-13T01:39:58;99981.06;;;19.45;100.00
28310;BME280;15571;50.974;13.936;2023-07-13T01:43:00;99980.06;;;19.48;100.00
28310;BME280;15571;50.974;13.936;2023-07-13T01:46:03;99983.56;;;19.48;100.00
28310;BME280;15571;50.974;13.936;2023-07-13T01:49:05;99989.91;;;19.46;100.00
28310;BME280;15571;50.974;13.936;2023-07-13T01:52:08;99999.72;;;19.43;100.00
28310;BME280;15571;50.974;13.936;2023-07-13T01:55:10;99992.25;;;19.52;100.00
28310;BME280;15571;50.974;13.936;2023-07-13T01:58:12;99984.16;;;19.55;100.00
28310;BME280;15571;50.974;13.936;2023-07-13T02:01:14;99980.66;;;19.54;100.00
28310;BME280;15571;50.974;13.936;2023-07-13T02:04:17;99981.81;;;19.49;100.00
28310;BME280;15571;50.974;13.936;2023-07-13T02:07:20;99978.28;;;19.48;100.00
28310;BME280;15571;50.974;13.936;2023-07-13T02:10:22;99964.56;;;19.38;100.00
28310;BME280;15571;50.974;13.936;2023-07-13T02:13:24;99956.59;;;19.57;100.00
28310;BME280;15571;50.974;13.936;2023-07-13T02:16:26;99954.03;;;19.56;100.00
28310;BME280;15571;50.974;13.936;2023-07-13T02:19:28;99953.97;;;19.38;100.00
28310;BME280;15571;50.974;13.936;2023-07-13T02:22:31;99958.25;;;19.41;100.00
28310;BME280;15571;50.974;13.936;2023-07-13T02:25:33;99957.13;;;19.47;100.00
28310;BME280;15571;50.974;13.936;2023-07-13T02:28:35;99960.19;;;19.37;100.00
28310;BME280;15571;50.974;13.936;2023-07-13T02:31:37;99957.13;;;19.47;100.00
28310;BME280;15571;50.974;13.936;2023-07-13T02:34:40;99973.97;;;19.46;100.00
28310;BME280;15571;50.974;13.936;2023-07-13T02:37:44;99967.88;;;19.43;100.00
28310;BME280;15571;50.974;13.936;2023-07-13T02:40:46;99955.69;;;19.39;100.00
28310;BME280;15571;50.974;13.936;2023-07-13T02:43:48;99963.13;;;19.31;100.00
28310;BME280;15571;50.974;13.936;2023-07-13T02:46:50;99957.25;;;19.24;100.00
28310;BME280;15571;50.974;13.936;2023-07-13T02:49:52;99954.53;;;19.26;100.00
28310;BME280;15571;50.974;13.936;2023-07-13T02:52:56;99960.41;;;19.33;100.00
28310;BME280;15571;50.974;13.936;2023-07-13T02:55:58;99972.16;;;19.27;100.00
28310;BME280;15571;50.974;13.936;2023-07-13T02:59:00;99972.16;;;19.27;100.00
28310;BME280;15571;50.974;13.936;2023-07-13T03:02:03;99976.97;;;19.19;100.00
28310;BME280;15571;50.974;13.936;2023-07-13T03:05:05;99980.94;;;19.29;100.00
28310;BME280;15571;50.974;13.936;2023-07-13T03:08:09;99967.72;;;19.27;100.00
28310;BME280;15571;50.974;13.936;2023-07-13T03:11:12;99972.28;;;19.24;100.00
28310;BME280;15571;50.974;13.936;2023-07-13T03:14:16;99983.72;;;19.26;100.00
28310;BME280;15571;50.974;13.936;2023-07-13T03:17:18;99990.94;;;19.22;100.00
28310;BME280;15571;50.974;13.936;2023-07-13T03:20:20;99982.06;;;19.23;100.00
28310;BME280;15571;50.974;13.936;2023-07-13T03:23:24;99983.03;;;19.21;100.00
28310;BME280;15571;50.974;13.936;2023-07-13T03:26:26;99979.97;;;19.11;100.00
28310;BME280;15571;50.974;13.936;2023-07-13T03:29:28;99978.81;;;19.17;100.00
28310;BME280;15571;50.974;13.936;2023-07-13T03:32:30;99990.94;;;19.22;100.00
28310;BME280;15571;50.974;13.936;2023-07-13T03:35:33;99989.88;;;19.26;100.00
28310;BME280;15571;50.974;13.936;2023-07-13T03:38:37;99989.81;;;19.28;100.00
28310;BME280;15571;50.974;13.936;2023-07-13T03:41:39;99997.69;;;19.29;100.00
28310;BME280;15571;50.974;13.936;2023-07-13T03:44:42;99999.28;;;19.34;100.00
28310;BME280;15571;50.974;13.936;2023-07-13T03:47:50;99995.13;;;19.28;100.00
28310;BME280;15571;50.974;13.936;2023-07-13T03:50:53;99991.13;;;19.38;100.00
28310;BME280;15571;50.974;13.936;2023-07-13T03:53:56;99989.41;;;19.37;100.00
28310;BME280;15571;50.974;13.936;2023-07-13T03:57:01;99999.28;;;19.34;100.00
28310;BME280;15571;50.974;13.936;2023-07-13T04:00:07;100002.88;;;19.33;100.00
28310;BME280;15571;50.974;13.936;2023-07-13T04:03:16;99973.84;;;19.49;100.00
28310;BME280;15571;50.974;13.936;2023-07-13T04:06:19;99980.63;;;19.35;100.00
28310;BME280;15571;50.974;13.936;2023-07-13T04:09:23;99985.44;;;19.27;100.00
28310;BME280;15571;50.974;13.936;2023-07-13T04:12:25;99992.59;;;19.25;100.00
28310;BME280;15571;50.974;13.936;2023-07-13T04:15:28;100014.75;;;19.24;100.00
28310;BME280;15571;50.974;13.936;2023-07-13T04:18:31;100025.53;;;19.40;100.00
28310;BME280;15571;50.974;13.936;2023-07-13T04:21:33;100019.00;;;19.47;100.00
28310;BME280;15571;50.974;13.936;2023-07-13T04:24:36;100001.16;;;19.89;100.00
28310;BME280;15571;50.974;13.936;2023-07-13T04:27:38;100005.50;;;19.92;100.00
28310;BME280;15571;50.974;13.936;2023-07-13T04:30:41;99985.28;;;20.06;100.00
28310;BME280;15571;50.974;13.936;2023-07-13T04:33:43;100005.81;;;19.84;100.00
28310;BME280;15571;50.974;13.936;2023-07-13T04:36:45;100008.81;;;19.76;100.00
28310;BME280;15571;50.974;13.936;2023-07-13T04:39:48;100023.25;;;19.70;100.00
28310;BME280;15571;50.974;13.936;2023-07-13T04:42:50;100008.06;;;19.74;100.00
28310;BME280;15571;50.974;13.936;2023-07-13T04:45:52;100003.91;;;19.87;100.00
28310;BME280;15571;50.974;13.936;2023-07-13T04:48:57;100020.38;;;19.75;100.00
28310;BME280;15571;50.974;13.936;2023-07-13T04:51:59;100022.19;;;19.74;100.00
28310;BME280;15571;50.974;13.936;2023-07-13T04:55:03;100030.78;;;19.80;100.00
28310;BME280;15571;50.974;13.936;2023-07-13T04:58:05;100029.72;;;19.84;100.00
28310;BME280;15571;50.974;13.936;2023-07-13T05:01:07;100022.28;;;19.92;100.00
28310;BME280;15571;50.974;13.936;2023-07-13T05:04:09;100005.22;;;20.15;100.00
28310;BME280;15571;50.974;13.936;2023-07-13T05:07:11;100004.94;;;20.21;100.00
28310;BME280;15571;50.974;13.936;2023-07-13T05:10:15;100017.22;;;20.05;100.00
28310;BME280;15571;50.974;13.936;2023-07-13T05:13:17;100027.47;;;19.95;100.00
28310;BME280;15571;50.974;13.936;2023-07-13T05:16:19;100032.19;;;20.08;100.00
28310;BME280;15571;50.974;13.936;2023-07-13T05:19:21;100038.94;;;20.15;100.00
28310;BME280;15571;50.974;13.936;2023-07-13T05:22:25;100023.94;;;20.31;100.00
28310;BME280;15571;50.974;13.936;2023-07-13T05:25:28;100010.03;;;20.44;100.00
28310;BME280;15571;50.974;13.936;2023-07-13T05:28:30;100002.78;;;20.47;100.00
28310;BME280;15571;50.974;13.936;2023-07-13T05:31:32;99996.91;;;20.41;100.00
28310;BME280;15571;50.974;13.936;2023-07-13T05:34:37;99997.06;;;20.55;100.00
28310;BME280;15571;50.974;13.936;2023-07-13T05:37:39;100009.13;;;20.80;100.00
28310;BME280;15571;50.974;13.936;2023-07-13T05:40:43;100008.19;;;20.98;100.00
28310;BME280;15571;50.974;13.936;2023-07-13T05:43:45;100003.59;;;21.18;100.00
28310;BME280;15571;50.974;13.936;2023-07-13T05:46:47;100003.78;;;21.31;100.00
28310;BME280;15571;50.974;13.936;2023-07-13T05:49:49;100003.09;;;21.27;100.00
28310;BME280;15571;50.974;13.936;2023-07-13T05:52:51;99999.06;;;21.20;100.00
28310;BME280;15571;50.974;13.936;2023-07-13T05:55:55;99998.97;;;21.06;100.00
28310;BME280;15571;50.974;13.936;2023-07-13T05:58:59;99990.50;;;20.97;100.00
28310;BME280;15571;50.974;13.936;2023-07-13T06:02:02;99992.22;;;20.98;100.00
28310;BME280;15571;50.974;13.936;2023-07-13T06:05:04;100002.69;;;21.02;100.00
28310;BME280;15571;50.974;13.936;2023-07-13T06:08:07;99991.38;;;20.98;100.00
28310;BME280;15571;50.974;13.936;2023-07-13T06:11:14;99987.56;;;21.20;100.00
28310;BME280;15571;50.974;13.936;2023-07-13T06:14:17;99995.38;;;21.23;100.00
28310;BME280;15571;50.974;13.936;2023-07-13T06:17:19;100000.78;;;21.21;100.00
28310;BME280;15571;50.974;13.936;2023-07-13T06:20:20;99998.63;;;21.12;100.00
28310;BME280;15571;50.974;13.936;2023-07-13T06:23:25;99999.34;;;21.32;100.00
28310;BME280;15571;50.974;13.936;2023-07-13T06:26:28;99989.75;;;21.45;100.00
28310;BME280;15571;50.974;13.936;2023-07-13T06:29:30;99995.34;;;21.40;100.00
28310;BME280;15571;50.974;13.936;2023-07-13T06:32:33;99993.53;;;21.41;100.00
28310;BME280;15571;50.974;13.936;2023-07-13T06:35:42;99998.03;;;21.23;100.00
28310;BME280;15571;50.974;13.936;2023-07-13T06:38:43;100003.50;;;21.37;100.00
28310;BME280;15571;50.974;13.936;2023-07-13T06:41:47;100010.78;;;21.34;100.00
28310;BME280;15571;50.974;13.936;2023-07-13T06:44:48;100008.84;;;21.53;100.00
28310;BME280;15571;50.974;13.936;2023-07-13T06:47:50;100020.91;;;21.60;100.00
28310;BME280;15571;50.974;13.936;2023-07-13T06:50:52;100007.09;;;21.86;100.00
28310;BME280;15571;50.974;13.936;2023-07-13T06:53:54;100017.31;;;21.94;100.00
28310;BME280;15571;50.974;13.936;2023-07-13T06:56:59;100022.59;;;22.26;100.00
28310;BME280;15571;50.974;13.936;2023-07-13T07:00:00;100012.28;;;22.35;100.00
28310;BME280;15571;50.974;13.936;2023-07-13T07:03:02;100003.31;;;22.52;100.00
28310;BME280;15571;50.974;13.936;2023-07-13T07:06:10;100002.06;;;22.58;100.00
28310;BME280;15571;50.974;13.936;2023-07-13T07:09:16;100002.25;;;22.85;100.00
28310;BME280;15571;50.974;13.936;2023-07-13T07:12:19;100002.16;;;22.87;100.00
28310;BME280;15571;50.974;13.936;2023-07-13T07:15:21;99998.72;;;22.85;100.00
28310;BME280;15571;50.974;13.936;2023-07-13T07:18:23;99998.84;;;22.98;100.00
28310;BME280;15571;50.974;13.936;2023-07-13T07:21:25;100008.94;;;23.07;100.00
28310;BME280;15571;50.974;13.936;2023-07-13T07:24:27;100018.63;;;22.79;100.00
28310;BME280;15571;50.974;13.936;2023-07-13T07:27:30;100022.53;;;22.74;100.00
28310;BME280;15571;50.974;13.936;2023-07-13T07:30:35;100021.53;;;22.60;100.00
28310;BME280;15571;50.974;13.936;2023-07-13T07:33:38;100021.25;;;22.65;100.00
28310;BME280;15571;50.974;13.936;2023-07-13T07:36:43;100022.47;;;22.59;100.00
28310;BME280;15571;50.974;13.936;2023-07-13T07:39:45;100014.34;;;22.91;100.00
28310;BME280;15571;50.974;13.936;2023-07-13T07:42:48;100018.47;;;22.82;100.00
28310;BME280;15571;50.974;13.936;2023-07-13T07:45:50;100013.97;;;22.97;100.00
28310;BME280;15571;50.974;13.936;2023-07-13T07:48:52;100006.38;;;23.06;100.00
28310;BME280;15571;50.974;13.936;2023-07-13T07:51:53;100002.00;;;23.05;100.00
28310;BME280;15571;50.974;13.936;2023-07-13T07:54:55;100002.06;;;23.03;100.00
28310;BME280;15571;50.974;13.936;2023-07-13T07:57:58;100001.72;;;23.09;100.00
28310;BME280;15571;50.974;13.936;2023-07-13T08:01:03;100005.19;;;23.26;100.00
28310;BME280;15571;50.974;13.936;2023-07-13T08:04:10;100006.34;;;23.22;100.00
28310;BME280;15571;50.974;13.936;2023-07-13T08:07:12;100003.06;;;23.45;100.00
28310;BME280;15571;50.974;13.936;2023-07-13T08:10:15;99993.66;;;23.82;100.00
28310;BME280;15571;50.974;13.936;2023-07-13T08:13:21;99995.38;;;23.83;100.00
28310;BME280;15571;50.974;13.936;2023-07-13T08:16:23;99986.66;;;23.52;100.00
28310;BME280;15571;50.974;13.936;2023-07-13T08:19:24;99984.06;;;23.65;100.00
28310;BME280;15571;50.974;13.936;2023-07-13T08:22:29;99986.34;;;23.71;100.00
28310;BME280;15571;50.974;13.936;2023-07-13T08:25:32;99973.63;;;23.74;100.00
28310;BME280;15571;50.974;13.936;2023-07-13T08:28:36;99981.50;;;23.49;100.00
28310;BME280;15571;50.974;13.936;2023-07-13T08:31:37;99991.97;;;23.66;100.00
28310;BME280;15571;50.974;13.936;2023-07-13T08:34:39;99981.47;;;23.77;100.00
28310;BME280;15571;50.974;13.936;2023-07-13T08:37:41;99989.97;;;23.70;100.00
28310;BME280;15571;50.974;13.936;2023-07-13T08:40:43;99984.31;;;23.74;100.00
28310;BME280;15571;50.974;13.936;2023-07-13T08:43:50;99987.19;;;23.71;100.00
28310;BME280;15571;50.974;13.936;2023-07-13T08:46:53;99987.41;;;23.68;100.00
28310;BME280;15571;50.974;13.936;2023-07-13T08:49:56;99982.97;;;23.96;100.00
28310;BME280;15571;50.974;13.936;2023-07-13T08:52:58;99991.06;;;24.22;100.00
28310;BME280;15571;50.974;13.936;2023-07-13T08:56:01;99994.34;;;24.40;100.00
28310;BME280;15571;50.974;13.936;2023-07-13T08:59:09;99983.69;;;24.66;100.00
28310;BME280;15571;50.974;13.936;2023-07-13T09:02:26;99983.31;;;24.85;100.00
28310;BME280;15571;50.974;13.936;2023-07-13T09:05:29;99988.66;;;24.72;99.60
28310;BME280;15571;50.974;13.936;2023-07-13T09:08:38;99987.16;;;25.20;96.97
28310;BME280;15571;50.974;13.936;2023-07-13T09:11:48;99983.94;;;25.27;92.95
28310;BME280;15571;50.974;13.936;2023-07-13T09:14:53;99991.44;;;25.22;92.97
28310;BME280;15571;50.974;13.936;2023-07-13T09:17:57;99990.03;;;25.55;88.76
28310;BME280;15571;50.974;13.936;2023-07-13T09:21:02;99991.41;;;25.98;85.70
28310;BME280;15571;50.974;13.936;2023-07-13T09:24:19;99990.00;;;26.30;80.47
28310;BME280;15571;50.974;13.936;2023-07-13T09:27:27;99995.41;;;26.41;79.22
28310;BME280;15571;50.974;13.936;2023-07-13T09:30:33;99990.25;;;26.38;73.91
28310;BME280;15571;50.974;13.936;2023-07-13T09:33:35;99993.91;;;26.37;67.25
28310;BME280;15571;50.974;13.936;2023-07-13T09:36:37;99991.66;;;26.55;59.03
28310;BME280;15571;50.974;13.936;2023-07-13T09:39:40;100010.97;;;26.24;62.97
28310;BME280;15571;50.974;13.936;2023-07-13T09:42:43;100003.72;;;26.49;64.44
28310;BME280;15571;50.974;13.936;2023-07-13T09:45:49;100002.38;;;26.19;67.41
28310;BME280;15571;50.974;13.936;2023-07-13T09:48:51;99999.97;;;26.28;60.37
28310;BME280;15571;50.974;13.936;2023-07-13T09:52:01;100011.63;;;25.78;65.78
28310;BME280;15571;50.974;13.936;2023-07-13T09:55:04;100010.59;;;26.05;66.31
28310;BME280;15571;50.974;13.936;2023-07-13T09:58:09;100015.53;;;25.98;67.95
28310;BME280;15571;50.974;13.936;2023-07-13T10:01:13;100012.16;;;25.83;66.47
28310;BME280;15571;50.974;13.936;2023-07-13T10:04:16;100011.09;;;25.73;67.71
28310;BME280;15571;50.974;13.936;2023-07-13T10:07:19;100016.25;;;25.76;71.13
28310;BME280;15571;50.974;13.936;2023-07-13T10:10:24;100023.38;;;25.88;75.09
28310;BME280;15571;50.974;13.936;2023-07-13T10:13:31;100020.81;;;25.87;75.61
28310;BME280;15571;50.974;13.936;2023-07-13T10:16:37;100018.78;;;25.90;75.11
28310;BME280;15571;50.974;13.936;2023-07-13T10:19:40;100018.72;;;26.03;74.76
28310;BME280;15571;50.974;13.936;2023-07-13T10:22:44;100034.63;;;26.31;76.23
28310;BME280;15571;50.974;13.936;2023-07-13T10:25:48;100022.34;;;26.64;72.55
28310;BME280;15571;50.974;13.936;2023-07-13T10:28:51;100018.50;;;26.55;73.15
28310;BME280;15571;50.974;13.936;2023-07-13T10:31:58;100022.25;;;26.41;72.69
28310;BME280;15571;50.974;13.936;2023-07-13T10:35:00;100025.22;;;26.25;68.79
28310;BME280;15571;50.974;13.936;2023-07-13T10:38:07;100029.72;;;26.49;61.55
28310;BME280;15571;50.974;13.936;2023-07-13T10:41:10;100022.03;;;26.44;60.86
28310;BME280;15571;50.974;13.936;2023-07-13T10:44:15;100020.31;;;26.43;59.73
28310;BME280;15571;50.974;13.936;2023-07-13T10:47:23;100021.94;;;26.57;56.92
28310;BME280;15571;50.974;13.936;2023-07-13T10:50:26;100018.41;;;26.68;60.61
28310;BME280;15571;50.974;13.936;2023-07-13T10:53:31;100013.97;;;26.80;61.58
28310;BME280;15571;50.974;13.936;2023-07-13T10:56:33;100008.66;;;26.67;61.46
28310;BME280;15571;50.974;13.936;2023-07-13T10:59:38;100004.72;;;26.95;63.64
28310;BME280;15571;50.974;13.936;2023-07-13T11:02:43;99996.66;;;26.84;62.16
28310;BME280;15571;50.974;13.936;2023-07-13T11:05:48;99996.09;;;27.03;65.35
28310;BME280;15571;50.974;13.936;2023-07-13T11:08:52;99994.38;;;27.25;64.35
28310;BME280;15571;50.974;13.936;2023-07-13T11:11:55;100006.34;;;27.09;64.29
28310;BME280;15571;50.974;13.936;2023-07-13T11:15:03;99994.38;;;27.25;60.67
28310;BME280;15571;50.974;13.936;2023-07-13T11:18:21;99997.16;;;26.65;64.43
28310;BME280;15571;50.974;13.936;2023-07-13T11:21:25;99996.50;;;26.74;62.96
28310;BME280;15571;50.974;13.936;2023-07-13T11:24:48;100003.41;;;26.65;66.48
28310;BME280;15571;50.974;13.936;2023-07-13T11:27:52;99995.56;;;26.86;62.89
28310;BME280;15571;50.974;13.936;2023-07-13T11:31:10;99987.75;;;27.06;66.55
28310;BME280;15571;50.974;13.936;2023-07-13T11:34:18;99995.31;;;26.90;58.34
28310;BME280;15571;50.974;13.936;2023-07-13T11:37:23;100000.09;;;26.86;61.60
28310;BME280;15571;50.974;13.936;2023-07-13T11:40:26;99996.59;;;26.72;61.54
28310;BME280;15571;50.974;13.936;2023-07-13T11:43:30;99993.50;;;26.66;60.91
28310;BME280;15571;50.974;13.936;2023-07-13T11:46:34;99984.84;;;26.26;64.91
28310;BME280;15571;50.974;13.936;2023-07-13T11:49:40;99988.81;;;26.34;63.69
28310;BME280;15571;50.974;13.936;2023-07-13T11:52:42;99988.09;;;26.43;61.43
28310;BME280;15571;50.974;13.936;2023-07-13T11:55:45;99980.41;;;26.38;58.19
28310;BME280;15571;50.974;13.936;2023-07-13T11:58:48;99988.28;;;26.29;55.96
28310;BME280;15571;50.974;13.936;2023-07-13T12:01:54;99985.16;;;26.35;54.90
28310;BME280;15571;50.974;13.936;2023-07-13T12:04:57;99980.94;;;26.55;59.53
28310;BME280;15571;50.974;13.936;2023-07-13T12:08:00;99983.13;;;26.61;60.32
28310;BME280;15571;50.974;13.936;2023-07-13T12:14:29;99976.56;;;26.30;62.17
28310;BME280;15571;50.974;13.936;2023-07-13T12:17:30;99974.63;;;26.32;57.49
28310;BME280;15571;50.974;13.936;2023-07-13T12:20:38;99963.69;;;26.35;65.37
28310;BME280;15571;50.974;13.936;2023-07-13T12:23:42;99974.38;;;26.23;69.43
28310;BME280;15571;50.974;13.936;2023-07-13T12:26:44;99982.00;;;26.17;60.28
28310;BME280;15571;50.974;13.936;2023-07-13T12:29:52;99975.84;;;26.28;59.70
28310;BME280;15571;50.974;13.936;2023-07-13T12:32:56;99969.34;;;26.54;61.45
28310;BME280;15571;50.974;13.936;2023-07-13T12:36:00;99971.78;;;26.57;57.59
28310;BME280;15571;50.974;13.936;2023-07-13T12:39:13;99970.63;;;26.73;59.32
28310;BME280;15571;50.974;13.936;2023-07-13T12:42:18;99965.22;;;26.62;56.76
28310;BME280;15571;50.974;13.936;2023-07-13T12:45:24;99959.88;;;26.73;57.49
28310;BME280;15571;50.974;13.936;2023-07-13T12:48:28;99964.66;;;26.81;59.28
28310;BME280;15571;50.974;13.936;2023-07-13T12:51:31;99963.81;;;26.80;58.10
28310;BME280;15571;50.974;13.936;2023-07-13T12:54:34;99966.16;;;26.96;56.77
28310;BME280;15571;50.974;13.936;2023-07-13T12:57:40;99962.13;;;26.91;53.14
28310;BME280;15571;50.974;13.936;2023-07-13T13:00:47;99971.66;;;27.17;54.28
28310;BME280;15571;50.974;13.936;2023-07-13T13:03:50;99975.31;;;27.39;54.79
28310;BME280;15571;50.974;13.936;2023-07-13T13:07:04;99971.19;;;27.12;53.29
28310;BME280;15571;50.974;13.936;2023-07-13T13:10:11;99968.50;;;27.12;54.24
28310;BME280;15571;50.974;13.936;2023-07-13T13:13:13;99971.56;;;27.53;53.41
28310;BME280;15571;50.974;13.936;2023-07-13T13:16:19;99961.41;;;27.45;57.44
28310;BME280;15571;50.974;13.936;2023-07-13T13:19:28;99968.72;;;27.66;56.78
28310;BME280;15571;50.974;13.936;2023-07-13T13:22:32;99972.13;;;27.34;50.31
28310;BME280;15571;50.974;13.936;2023-07-13T13:25:34;99973.88;;;27.12;54.65
28310;BME280;15571;50.974;13.936;2023-07-13T13:28:39;99969.94;;;27.16;54.71
28310;BME280;15571;50.974;13.936;2023-07-13T13:31:41;99972.16;;;27.23;56.54
28310;BME280;15571;50.974;13.936;2023-07-13T13:34:43;99969.56;;;27.10;51.46
28310;BME280;15571;50.974;13.936;2023-07-13T13:37:46;99968.84;;;26.96;52.13
28310;BME280;15571;50.974;13.936;2023-07-13T13:40:50;99967.50;;;27.02;50.86
28310;BME280;15571;50.974;13.936;2023-07-13T13:43:52;99972.34;;;26.85;55.89
28310;BME280;15571;50.974;13.936;2023-07-13T13:46:54;99972.34;;;26.85;50.39
28310;BME280;15571;50.974;13.936;2023-07-13T13:49:57;99970.31;;;26.65;48.48
28310;BME280;15571;50.974;13.936;2023-07-13T13:53:00;99965.03;;;26.87;52.21
28310;BME280;15571;50.974;13.936;2023-07-13T13:56:05;99967.66;;;26.76;48.14
28310;BME280;15571;50.974;13.936;2023-07-13T13:59:07;99973.03;;;26.76;48.06
28310;BME280;15571;50.974;13.936;2023-07-13T14:02:20;99970.31;;;27.00;50.54
28310;BME280;15571;50.974;13.936;2023-07-13T14:05:24;99968.97;;;27.06;48.23
28310;BME280;15571;50.974;13.936;2023-07-13T14:08:28;99963.47;;;27.30;47.44
28310;BME280;15571;50.974;13.936;2023-07-13T14:11:30;99964.22;;;27.55;50.10
28310;BME280;15571;50.974;13.936;2023-07-13T14:14:32;99964.59;;;27.51;47.48
28310;BME280;15571;50.974;13.936;2023-07-13T14:17:37;99961.28;;;27.36;47.43
28310;BME280;15571;50.974;13.936;2023-07-13T14:20:39;99958.81;;;27.32;45.85
28310;BME280;15571;50.974;13.936;2023-07-13T14:23:42;99968.34;;;27.02;47.63
28310;BME280;15571;50.974;13.936;2023-07-13T14:26:45;99962.63;;;27.07;46.90
28310;BME280;15571;50.974;13.936;2023-07-13T14:29:47;99955.44;;;27.08;45.76
28310;BME280;15571;50.974;13.936;2023-07-13T14:32:49;99947.47;;;27.29;48.27
28310;BME280;15571;50.974;13.936;2023-07-13T14:35:53;99950.66;;;27.00;47.37
28310;BME280;15571;50.974;13.936;2023-07-13T14:38:57;99954.44;;;27.31;49.55
28310;BME280;15571;50.974;13.936;2023-07-13T14:41:59;99956.50;;;27.16;48.73
28310;BME280;15571;50.974;13.936;2023-07-13T14:45:03;99952.13;;;27.27;47.03
28310;BME280;15571;50.974;13.936;2023-07-13T14:48:05;99960.19;;;27.27;52.30
28310;BME280;15571;50.974;13.936;2023-07-13T14:51:07;99949.44;;;27.27;48.17
28310;BME280;15571;50.974;13.936;2023-07-13T14:54:11;99962.38;;;26.99;48.23
28310;BME280;15571;50.974;13.936;2023-07-13T14:57:14;99956.78;;;27.02;47.60
28310;BME280;15571;50.974;13.936;2023-07-13T15:00:18;99946.25;;;26.87;47.42
28310;BME280;15571;50.974;13.936;2023-07-13T15:03:21;99946.13;;;27.12;48.95
28310;BME280;15571;50.974;13.936;2023-07-13T15:06:25;99962.63;;;27.07;47.67
28310;BME280;15571;50.974;13.936;2023-07-13T15:09:30;99962.03;;;27.15;47.43
28310;BME280;15571;50.974;13.936;2023-07-13T15:12:33;99963.38;;;27.21;47.08
28310;BME280;15571;50.974;13.936;2023-07-13T15:15:34;99957.63;;;27.14;45.11
28310;BME280;15571;50.974;13.936;2023-07-13T15:18:37;99957.97;;;27.09;46.94
28310;BME280;15571;50.974;13.936;2023-07-13T15:21:41;99967.72;;;26.87;47.44
28310;BME280;15571;50.974;13.936;2023-07-13T15:24:44;99959.19;;;26.82;48.19
28310;BME280;15571;50.974;13.936;2023-07-13T15:27:47;99961.38;;;26.88;47.72
28310;BME280;15571;50.974;13.936;2023-07-13T15:30:49;99970.94;;;26.93;49.82
28310;BME280;15571;50.974;13.936;2023-07-13T15:33:52;99966.50;;;27.14;48.56
28310;BME280;15571;50.974;13.936;2023-07-13T15:36:54;99962.16;;;27.13;49.98
28310;BME280;15571;50.974;13.936;2023-07-13T15:39:57;99956.41;;;27.18;51.43
28310;BME280;15571;50.974;13.936;2023-07-13T15:42:59;99951.13;;;27.28;50.37
28310;BME280;15571;50.974;13.936;2023-07-13T15:46:02;99964.94;;;27.23;46.46
28310;BME280;15571;50.974;13.936;2023-07-13T15:49:04;99972.91;;;27.13;45.54
28310;BME280;15571;50.974;13.936;2023-07-13T15:52:16;99968.31;;;26.80;43.85
28310;BME280;15571;50.974;13.936;2023-07-13T15:55:21;99960.81;;;27.08;42.51